createdAt,value
2022-08-01T00:02:12.327Z,19.45
2022-08-01T00:04:39.993Z,19.48
2022-08-01T00:07:07.422Z,19.48
2022-08-01T00:09:34.848Z,19.49
2022-08-01T00:12:03.037Z,19.50
2022-08-01T00:14:32.635Z,19.49
2022-08-01T00:17:03.937Z,19.53
2022-08-01T00:19:34.724Z,19.53
2022-08-01T00:22:02.232Z,19.53
2022-08-01T00:24:29.690Z,19.53
2022-08-01T00:26:57.109Z,19.53
2022-08-01T00:30:13.323Z,19.53
2022-08-01T00:32:13.301Z,19.54
2022-08-01T00:34:40.904Z,19.54
2022-08-01T00:37:09.478Z,19.54
2022-08-01T00:39:37.796Z,19.54
2022-08-01T00:42:10.231Z,19.53
2022-08-01T00:44:38.460Z,19.43
2022-08-01T00:47:06.924Z,19.49
2022-08-01T00:49:36.379Z,19.48
2022-08-01T00:52:05.662Z,19.51
2022-08-01T00:54:34.286Z,19.47
2022-08-01T00:57:02.110Z,19.46
2022-08-01T00:59:29.707Z,19.44
2022-08-01T01:01:59.449Z,19.45
2022-08-01T01:04:28.505Z,19.41
2022-08-01T01:07:04.837Z,19.37
2022-08-01T01:09:41.154Z,19.34
2022-08-01T01:12:21.223Z,19.36
2022-08-01T01:14:56.398Z,19.33
2022-08-01T01:17:31.419Z,19.34
2022-08-01T01:20:19.529Z,19.33
2022-08-01T01:23:05.097Z,19.36
2022-08-01T01:25:48.091Z,19.38
2022-08-01T01:28:22.456Z,19.44
2022-08-01T01:30:55.413Z,19.36
2022-08-01T01:33:26.061Z,19.41
2022-08-01T01:35:57.992Z,19.37
2022-08-01T01:38:29.947Z,19.38
2022-08-01T01:40:58.984Z,19.33
2022-08-01T01:43:33.695Z,19.36
2022-08-01T01:46:05.529Z,19.33
2022-08-01T01:48:35.255Z,19.35
2022-08-01T01:51:03.953Z,19.29
2022-08-01T01:53:35.105Z,19.29
2022-08-01T01:56:04.085Z,19.29
2022-08-01T01:58:35.882Z,18.91
2022-08-01T02:01:05.772Z,18.91
2022-08-01T02:03:42.832Z,19.44
2022-08-01T02:06:11.296Z,19.41
2022-08-01T02:08:41.933Z,19.39
2022-08-01T02:11:22.410Z,19.42
2022-08-01T02:13:55.624Z,19.41
2022-08-01T02:16:27.057Z,19.41
2022-08-01T02:18:54.951Z,19.40
2022-08-01T02:21:27.519Z,19.40
2022-08-01T02:23:57.405Z,19.35
2022-08-01T02:26:26.610Z,19.34
2022-08-01T02:28:59.080Z,19.37
2022-08-01T02:31:34.431Z,19.24
2022-08-01T02:34:06.592Z,19.23
2022-08-01T02:36:36.280Z,19.23
2022-08-01T02:39:08.227Z,19.24
2022-08-01T02:41:41.216Z,19.24
2022-08-01T02:44:11.604Z,19.24
2022-08-01T02:46:45.792Z,19.28
2022-08-01T02:49:16.047Z,19.28
2022-08-01T02:51:46.334Z,19.28
2022-08-01T02:54:14.071Z,19.28
2022-08-01T02:56:43.675Z,19.28
2022-08-01T02:59:15.225Z,19.28
2022-08-01T03:01:45.053Z,19.28
2022-08-01T03:04:22.461Z,19.28
2022-08-01T03:06:50.393Z,19.28
2022-08-01T03:09:18.988Z,19.28
2022-08-01T03:11:49.630Z,19.28
2022-08-01T03:14:29.055Z,19.28
2022-08-01T03:16:59.820Z,19.28
2022-08-01T03:19:29.453Z,19.28
2022-08-01T03:21:59.265Z,19.28
2022-08-01T03:24:29.565Z,19.28
2022-08-01T03:26:58.415Z,19.28
2022-08-01T03:29:30.506Z,19.28
2022-08-01T03:32:03.716Z,19.28
2022-08-01T03:34:34.526Z,19.28
2022-08-01T03:39:36.920Z,19.28
2022-08-01T03:42:11.915Z,-139.23
2022-08-01T03:44:42.181Z,-139.23
2022-08-01T03:47:14.241Z,-139.23
2022-08-01T03:49:44.908Z,-139.23
2022-08-01T03:52:13.311Z,-139.23
2022-08-01T03:54:45.244Z,-139.23
2022-08-01T03:57:36.395Z,-139.23
2022-08-01T04:00:07.194Z,-139.23
2022-08-01T04:02:36.932Z,-139.23
2022-08-01T04:05:05.628Z,-139.23
2022-08-01T04:07:36.691Z,-139.23
2022-08-01T04:10:05.251Z,-139.23
2022-08-01T04:12:33.510Z,-139.23
2022-08-01T04:15:00.931Z,-139.23
2022-08-01T04:17:28.431Z,-139.23
2022-08-01T04:19:57.376Z,-139.23
2022-08-01T04:22:25.449Z,-139.23
2022-08-01T04:25:00.108Z,-139.23
2022-08-01T04:27:49.953Z,-139.23
2022-08-01T04:30:21.841Z,-139.23
2022-08-01T04:32:51.001Z,-139.23
2022-08-01T04:35:22.824Z,-139.23
2022-08-01T04:38:10.710Z,-139.23
2022-08-01T04:40:38.456Z,-139.23
2022-08-01T04:43:07.883Z,-139.23
2022-08-01T04:45:36.517Z,-139.23
2022-08-01T04:48:07.666Z,-139.23
2022-08-01T04:50:36.832Z,-139.23
2022-08-01T04:53:04.748Z,-139.23
2022-08-01T04:55:32.914Z,-139.23
2022-08-01T04:58:01.490Z,-139.23
2022-08-01T05:00:29.380Z,-139.23
2022-08-01T05:02:58.351Z,-139.23
2022-08-01T05:05:27.345Z,-139.23
2022-08-01T05:07:56.743Z,-139.23
2022-08-01T05:10:27.172Z,-139.23
2022-08-01T05:12:59.512Z,-139.23
2022-08-01T05:15:28.038Z,-139.23
2022-08-01T05:17:55.893Z,-139.23
2022-08-01T05:20:23.351Z,-139.23
2022-08-01T05:22:50.811Z,-139.23
2022-08-01T05:25:56.456Z,-139.23
2022-08-01T05:28:09.529Z,-139.23
2022-08-01T05:30:40.682Z,-139.23
2022-08-01T05:33:08.165Z,-139.23
2022-08-01T05:35:48.748Z,-139.23
2022-08-01T05:38:16.861Z,-139.23
2022-08-01T05:40:46.678Z,-139.23
2022-08-01T05:43:15.925Z,-139.23
2022-08-01T05:45:45.651Z,-139.23
2022-08-01T05:48:15.950Z,-139.23
2022-08-01T05:50:45.259Z,-139.23
2022-08-01T05:53:12.881Z,-139.23
2022-08-01T05:55:41.627Z,-139.23
2022-08-01T05:58:12.784Z,-139.23
2022-08-01T06:00:40.541Z,-139.23
2022-08-01T06:03:07.971Z,-139.23
2022-08-01T06:05:35.404Z,-139.23
2022-08-01T06:08:02.809Z,-139.23
2022-08-01T06:10:31.741Z,-139.23
2022-08-01T06:13:02.987Z,-139.23
2022-08-01T06:15:31.996Z,-139.23
2022-08-01T06:17:59.664Z,-139.23
2022-08-01T06:20:27.358Z,-139.23
2022-08-01T06:22:55.457Z,-139.23
2022-08-01T06:25:24.558Z,-139.23
2022-08-01T06:27:55.285Z,-139.23
2022-08-01T06:30:23.114Z,-139.23
2022-08-01T06:32:52.166Z,-139.23
2022-08-01T06:35:21.386Z,-139.23
2022-08-01T06:37:50.028Z,-139.23
2022-08-01T06:40:20.002Z,-139.23
2022-08-01T06:42:47.786Z,-139.23
2022-08-01T06:45:16.557Z,-139.23
2022-08-01T06:47:48.832Z,-139.23
2022-08-01T06:50:21.886Z,-139.23
2022-08-01T06:52:50.486Z,-139.23
2022-08-01T06:55:18.023Z,-139.23
2022-08-01T06:57:50.034Z,-139.23
2022-08-01T07:00:23.470Z,-139.23
2022-08-01T07:02:51.577Z,-139.23
2022-08-01T07:05:20.649Z,-139.23
2022-08-01T07:07:48.522Z,-139.23
2022-08-01T07:10:15.960Z,-139.23
2022-08-01T07:12:43.434Z,-139.23
2022-08-01T07:15:12.249Z,-139.23
2022-08-01T07:17:42.080Z,-139.23
2022-08-01T07:20:11.730Z,-139.23
2022-08-01T07:22:42.999Z,-139.23
2022-08-01T07:25:11.135Z,-139.23
2022-08-01T07:27:39.131Z,-139.23
2022-08-01T07:30:07.918Z,-139.23
2022-08-01T07:32:37.845Z,-139.23
2022-08-01T07:35:13.097Z,-139.23
2022-08-01T07:37:48.487Z,-139.23
2022-08-01T07:40:17.805Z,-139.23
2022-08-01T07:42:45.913Z,-139.23
2022-08-01T07:45:18.896Z,-139.23
2022-08-01T07:47:47.700Z,-139.23
2022-08-01T07:50:15.327Z,-139.23
2022-08-01T07:52:43.160Z,-139.23
2022-08-01T07:55:16.538Z,-139.23
2022-08-01T07:57:44.449Z,-139.23
2022-08-01T08:00:13.038Z,-139.23
2022-08-01T08:02:46.764Z,-139.23
2022-08-01T08:05:16.773Z,-139.23
2022-08-01T08:08:04.241Z,-139.23
2022-08-01T08:10:36.345Z,-139.23
2022-08-01T08:13:19.247Z,-139.23
2022-08-01T08:15:50.157Z,-139.23
2022-08-01T08:18:18.145Z,-139.23
2022-08-01T08:20:46.077Z,-139.23
2022-08-01T08:23:41.925Z,-139.23
2022-08-01T08:26:13.021Z,-139.23
2022-08-01T08:28:45.894Z,-139.23
2022-08-01T08:31:24.872Z,-139.23
2022-08-01T08:34:05.085Z,-139.23
2022-08-01T08:36:33.145Z,-139.23
2022-08-01T08:39:05.679Z,-139.23
2022-08-01T08:41:38.103Z,-139.23
2022-08-01T08:44:09.996Z,-139.23
2022-08-01T08:46:42.771Z,-139.23
2022-08-01T08:49:10.868Z,-139.23
2022-08-01T08:51:41.337Z,-139.23
2022-08-01T08:54:11.042Z,-139.23
2022-08-01T08:56:41.166Z,-139.23
2022-08-01T08:59:08.957Z,-139.23
2022-08-01T09:01:39.218Z,-139.23
2022-08-01T09:04:07.420Z,-139.23
2022-08-01T09:06:35.248Z,-139.23
2022-08-01T09:09:03.380Z,-139.23
2022-08-01T09:11:34.440Z,-139.23
2022-08-01T09:14:24.799Z,-139.23
2022-08-01T09:17:01.983Z,-139.23
2022-08-01T09:19:41.324Z,-139.23
2022-08-01T09:22:11.819Z,-139.23
2022-08-01T09:24:42.606Z,-139.23
2022-08-01T09:27:25.188Z,-139.23
2022-08-01T09:30:01.002Z,-139.23
2022-08-01T09:32:35.131Z,-139.23
2022-08-01T09:35:30.125Z,-139.23
2022-08-01T09:38:16.517Z,-139.23
2022-08-01T09:40:53.168Z,-139.23
2022-08-01T09:43:21.941Z,-139.23
2022-08-01T09:45:53.446Z,-139.23
2022-08-01T09:48:22.819Z,-139.23
2022-08-01T09:51:07.361Z,-139.23
2022-08-01T09:53:52.522Z,-139.23
2022-08-01T09:56:20.676Z,-139.23
2022-08-01T09:59:00.599Z,-139.23
2022-08-01T10:01:46.579Z,-139.23
2022-08-01T10:04:17.062Z,-139.23
2022-08-01T10:06:53.184Z,-139.23
2022-08-01T10:09:36.010Z,-139.23
2022-08-01T10:12:15.849Z,-139.23
2022-08-01T10:14:46.543Z,-139.23
2022-08-01T10:17:18.342Z,-139.23
2022-08-01T10:19:47.956Z,-139.23
2022-08-01T10:22:17.744Z,-139.23
2022-08-01T10:24:47.112Z,-139.23
2022-08-01T10:27:24.510Z,-139.23
2022-08-01T10:30:19.605Z,-139.23
2022-08-01T10:32:52.998Z,-139.23
2022-08-01T10:35:46.916Z,-139.23
2022-08-01T10:38:10.608Z,-139.23
2022-08-01T10:40:41.811Z,-139.23
2022-08-01T10:43:11.606Z,-139.23
2022-08-01T10:45:40.247Z,-139.23
2022-08-01T10:48:20.954Z,-139.23
2022-08-01T10:50:50.871Z,-139.23
2022-08-01T10:53:23.397Z,-139.23
2022-08-01T10:55:55.049Z,-139.23
2022-08-01T10:58:25.066Z,-139.23
2022-08-01T11:01:25.924Z,-139.23
2022-08-01T11:04:08.426Z,-139.23
2022-08-01T11:06:43.273Z,-139.23
2022-08-01T11:09:42.480Z,-139.23
2022-08-01T11:12:14.506Z,-139.23
2022-08-01T11:15:32.320Z,-139.23
2022-08-01T11:18:05.409Z,-139.23
2022-08-01T11:20:41.755Z,-139.23
2022-08-01T11:23:19.656Z,-139.23
2022-08-01T11:26:13.797Z,-139.23
2022-08-01T11:28:59.445Z,-139.23
2022-08-01T11:31:37.616Z,-139.23
2022-08-01T11:34:05.989Z,-139.23
2022-08-01T11:36:58.525Z,-139.23
2022-08-01T11:39:22.833Z,-139.23
2022-08-01T11:41:50.962Z,-139.23
2022-08-01T11:44:26.540Z,-139.23
2022-08-01T11:47:09.262Z,-139.23
2022-08-01T11:49:50.368Z,-139.23
2022-08-01T11:52:23.830Z,-139.23
2022-08-01T11:54:52.956Z,-139.23
2022-08-01T11:57:34.247Z,-139.23
2022-08-01T12:00:08.415Z,-139.23
2022-08-01T12:02:36.891Z,-139.23
2022-08-01T12:05:08.352Z,-139.23
2022-08-01T12:07:38.449Z,-139.23
2022-08-01T12:10:08.331Z,-139.23
2022-08-01T12:12:37.558Z,-139.23
2022-08-01T12:15:10.145Z,-139.23
2022-08-01T12:17:40.198Z,-139.23
2022-08-01T12:20:14.322Z,-139.23
2022-08-01T12:23:03.163Z,-139.23
2022-08-01T12:25:32.565Z,-139.23
2022-08-01T12:28:02.562Z,-139.23
2022-08-01T12:30:36.807Z,-139.23
2022-08-01T12:33:08.393Z,-139.23
2022-08-01T12:35:37.626Z,-139.23
2022-08-01T12:38:15.417Z,-139.23
2022-08-01T12:40:45.746Z,-139.23
2022-08-01T12:43:27.177Z,-139.23
2022-08-01T12:45:58.272Z,-139.23
2022-08-01T12:48:33.462Z,-139.23
2022-08-01T12:51:04.456Z,-139.23
2022-08-01T12:53:40.698Z,-139.23
2022-08-01T12:56:10.705Z,-139.23
2022-08-01T12:58:39.691Z,-139.23
2022-08-01T13:01:11.454Z,-139.23
2022-08-01T13:03:40.301Z,-139.23
2022-08-01T13:06:16.319Z,-139.23
2022-08-01T13:08:47.032Z,-139.23
2022-08-01T13:11:17.352Z,-139.23
2022-08-01T13:13:48.409Z,-139.23
2022-08-01T13:16:25.821Z,-139.23
2022-08-01T13:19:06.353Z,-139.23
2022-08-01T13:21:54.258Z,-139.23
2022-08-01T13:24:27.805Z,-139.23
2022-08-01T13:26:59.887Z,-139.23
2022-08-01T13:29:33.696Z,-139.23
2022-08-01T13:32:13.635Z,-139.23
2022-08-01T13:35:03.789Z,-139.23
2022-08-01T13:37:31.370Z,-139.23
2022-08-01T13:40:04.077Z,-139.23
2022-08-01T13:42:35.759Z,-139.23
2022-08-01T13:45:14.733Z,-139.23
2022-08-01T13:48:03.307Z,-139.23
2022-08-01T13:50:30.899Z,-139.23
2022-08-01T13:52:58.608Z,-139.23
2022-08-01T13:55:31.128Z,-139.23
2022-08-01T13:58:00.016Z,-139.23
2022-08-01T14:00:28.808Z,-139.23
2022-08-01T14:02:58.749Z,-139.23
2022-08-01T14:05:26.445Z,-139.23
2022-08-01T14:07:56.310Z,-139.23
2022-08-01T14:10:24.558Z,-139.23
2022-08-01T14:12:53.499Z,-139.23
2022-08-01T14:15:37.714Z,-139.23
2022-08-01T14:18:15.746Z,-139.23
2022-08-01T14:20:44.361Z,-139.23
2022-08-01T14:23:11.991Z,-139.23
2022-08-01T14:26:00.197Z,-139.23
2022-08-01T14:28:34.453Z,-139.23
2022-08-01T14:31:03.816Z,-139.23
2022-08-01T14:33:41.881Z,-139.23
2022-08-01T14:36:30.022Z,-139.23
2022-08-01T14:39:00.107Z,-139.23
2022-08-01T14:41:30.669Z,-139.23
2022-08-01T14:44:00.602Z,-139.23
2022-08-01T14:46:28.320Z,-139.23
2022-08-01T14:48:55.781Z,-139.23
2022-08-01T14:51:23.408Z,-139.23
2022-08-01T14:53:53.312Z,-139.23
2022-08-01T14:56:21.432Z,-139.23
2022-08-01T14:58:50.003Z,-139.23
2022-08-01T15:01:19.039Z,-139.23
2022-08-01T15:03:47.254Z,-139.23
2022-08-01T15:06:14.990Z,-139.23
2022-08-01T15:08:42.553Z,-139.23
2022-08-01T15:11:10.439Z,-139.23
2022-08-01T15:13:42.158Z,-139.23
2022-08-01T15:16:10.159Z,-139.23
2022-08-01T15:18:42.796Z,-139.23
2022-08-01T15:21:17.169Z,-139.23
2022-08-01T15:23:52.746Z,-139.23
2022-08-01T15:26:20.472Z,-139.23
2022-08-01T15:28:49.472Z,-139.23
2022-08-01T15:31:16.919Z,-139.23
2022-08-01T15:33:45.635Z,-139.23
2022-08-01T15:36:15.479Z,-139.23
2022-08-01T15:38:43.085Z,-139.23
2022-08-01T15:41:10.749Z,-139.23
2022-08-01T15:43:43.194Z,-139.23
2022-08-01T15:46:12.379Z,-139.23
2022-08-01T15:48:40.295Z,-139.23
2022-08-01T15:51:09.368Z,-139.23
2022-08-01T15:53:36.779Z,-139.23
2022-08-01T15:56:04.816Z,-139.23
2022-08-01T15:58:32.393Z,-139.23
2022-08-01T16:00:59.880Z,-139.23
2022-08-01T16:03:27.858Z,-139.23
2022-08-01T16:05:55.716Z,-139.23
2022-08-01T16:08:24.569Z,-139.23
2022-08-01T16:10:52.226Z,-139.23
2022-08-01T16:13:19.733Z,-139.23
2022-08-01T16:15:47.286Z,-139.23
2022-08-01T16:18:16.146Z,-139.23
2022-08-01T16:20:46.287Z,-139.23
2022-08-01T16:23:14.456Z,-139.23
2022-08-01T16:25:44.591Z,-139.23
2022-08-01T16:28:13.838Z,-139.23
2022-08-01T16:30:48.819Z,-139.23
2022-08-01T16:33:52.888Z,-139.23
2022-08-01T16:36:18.606Z,-139.23
2022-08-01T16:38:47.324Z,-139.23
2022-08-01T16:41:19.742Z,-139.23
2022-08-01T16:43:53.690Z,-139.23
2022-08-01T16:46:23.188Z,-139.23
2022-08-01T16:48:52.207Z,-139.23
2022-08-01T16:51:22.767Z,-139.23
2022-08-01T16:53:50.726Z,-139.23
2022-08-01T16:56:20.151Z,-139.23
2022-08-01T16:58:48.006Z,-139.23
2022-08-01T17:01:59.536Z,-139.23
2022-08-01T17:04:03.202Z,-139.23
2022-08-01T17:06:30.981Z,-139.23
2022-08-01T17:08:58.835Z,-139.23
2022-08-01T17:11:27.770Z,-139.23
2022-08-01T17:13:55.310Z,-139.23
2022-08-01T17:16:22.904Z,-139.23
2022-08-01T17:18:50.488Z,-139.23
2022-08-01T17:21:19.392Z,-139.23
2022-08-01T17:23:46.872Z,-139.23
2022-08-01T17:26:14.430Z,-139.23
2022-08-01T17:28:43.701Z,-139.23
2022-08-01T17:31:11.456Z,-139.23
2022-08-01T17:33:45.077Z,-139.23
2022-08-01T17:36:14.834Z,-139.23
2022-08-01T17:38:42.498Z,-139.23
2022-08-01T17:41:10.136Z,-139.23
2022-08-01T17:43:37.550Z,-139.23
2022-08-01T17:46:06.437Z,-139.23
2022-08-01T17:48:33.992Z,-139.23
2022-08-01T17:51:03.879Z,-139.23
2022-08-01T17:53:31.731Z,-139.23
2022-08-01T17:56:01.522Z,-139.23
2022-08-01T17:58:45.994Z,-139.23
2022-08-01T18:01:19.590Z,-139.23
2022-08-01T18:03:47.425Z,-139.23
2022-08-01T18:06:17.261Z,-139.23
2022-08-01T18:08:46.708Z,-139.23
2022-08-01T18:11:14.739Z,-139.23
2022-08-01T18:13:42.192Z,-139.23
2022-08-01T18:16:13.216Z,-139.23
2022-08-01T18:18:45.412Z,-139.23
2022-08-01T18:21:13.478Z,-139.23
2022-08-01T18:23:51.110Z,-139.23
2022-08-01T18:26:21.466Z,-139.23
2022-08-01T18:28:49.668Z,-139.23
2022-08-01T18:31:19.752Z,-139.23
2022-08-01T18:33:49.861Z,-139.23
2022-08-01T18:36:25.473Z,-139.23
2022-08-01T18:39:03.644Z,-139.23
2022-08-01T18:41:32.165Z,-139.23
2022-08-01T18:44:05.733Z,-139.23
2022-08-01T18:46:36.813Z,-139.23
2022-08-01T18:49:06.208Z,-139.23
2022-08-01T18:51:33.847Z,-139.23
2022-08-01T18:54:01.284Z,-139.23
2022-08-01T18:56:28.863Z,-139.23
2022-08-01T18:58:56.660Z,-139.23
2022-08-01T19:01:24.354Z,-139.23
2022-08-01T19:03:52.037Z,-139.23
2022-08-01T19:06:20.854Z,-139.23
2022-08-01T19:08:48.364Z,-139.23
2022-08-01T19:11:15.838Z,-139.23
2022-08-01T19:13:43.596Z,-139.23
2022-08-01T19:16:11.481Z,-139.23
2022-08-01T19:18:40.291Z,-139.23
2022-08-01T19:21:08.055Z,-139.23
2022-08-01T19:23:54.892Z,-139.23
2022-08-01T19:26:25.799Z,-139.23
2022-08-01T19:28:58.240Z,-139.23
2022-08-01T19:31:32.181Z,-139.23
2022-08-01T19:33:59.919Z,-139.23
2022-08-01T19:36:28.340Z,-139.23
2022-08-01T19:38:57.429Z,-139.23
2022-08-01T19:41:24.997Z,-139.23
2022-08-01T19:43:52.627Z,-139.23
2022-08-01T19:46:20.520Z,-139.23
2022-08-01T19:48:53.608Z,-139.23
2022-08-01T19:51:33.820Z,-139.23
2022-08-01T19:54:07.714Z,-139.23
2022-08-01T19:56:40.431Z,-139.23
2022-08-01T19:59:09.409Z,-139.23
2022-08-01T20:01:37.712Z,-139.23
2022-08-01T20:04:06.164Z,-139.23
2022-08-01T20:06:35.251Z,-139.23
2022-08-01T20:09:05.577Z,-139.23
2022-08-01T20:11:33.013Z,-139.23
2022-08-01T20:14:00.959Z,-139.23
2022-08-01T20:16:29.405Z,-139.23
2022-08-01T20:18:57.355Z,-139.23
2022-08-01T20:21:27.363Z,-139.23
2022-08-01T20:24:02.681Z,-139.23
2022-08-01T20:26:32.698Z,-139.23
2022-08-01T20:29:03.350Z,-139.23
2022-08-01T20:31:33.886Z,-139.23
2022-08-01T20:34:13.579Z,-139.23
2022-08-01T20:36:54.308Z,-139.23
2022-08-01T20:39:25.076Z,-139.23
2022-08-01T20:41:59.471Z,-139.23
2022-08-01T20:44:31.347Z,-139.23
2022-08-01T20:47:03.574Z,-139.23
2022-08-01T20:49:31.789Z,-139.23
2022-08-01T20:52:12.116Z,-139.23
2022-08-01T20:54:41.897Z,-139.23
2022-08-01T20:57:16.646Z,-139.23
2022-08-01T20:59:56.523Z,-139.23
2022-08-01T21:02:34.323Z,-139.23
2022-08-01T21:05:05.459Z,-139.23
2022-08-01T21:07:35.117Z,-139.23
2022-08-01T21:10:07.203Z,-139.23
2022-08-01T21:12:44.575Z,-139.23
2022-08-01T21:15:16.180Z,-139.23
2022-08-01T21:17:47.376Z,-139.23
2022-08-01T21:20:15.935Z,-139.23
2022-08-01T21:22:53.870Z,-139.23
2022-08-01T21:25:26.933Z,-139.23
2022-08-01T21:27:56.477Z,-139.23
2022-08-01T21:30:26.190Z,-139.23
2022-08-01T21:32:55.009Z,-139.23
2022-08-01T21:35:24.421Z,-139.23
2022-08-01T21:37:53.075Z,-139.23
2022-08-01T21:40:22.195Z,-139.23
2022-08-01T21:42:52.210Z,-139.23
2022-08-01T21:45:23.268Z,-139.23
2022-08-01T21:47:51.522Z,-139.23
2022-08-01T21:50:18.995Z,-139.23
2022-08-01T21:52:50.459Z,-139.23
2022-08-01T21:55:35.020Z,-139.23
2022-08-01T21:58:17.980Z,-139.23
2022-08-01T22:00:54.201Z,-139.23
2022-08-01T22:03:25.313Z,-139.23
2022-08-01T22:05:56.832Z,-139.23
2022-08-01T22:08:31.837Z,-139.23
2022-08-01T22:11:05.746Z,-139.23
2022-08-01T22:13:34.307Z,-139.23
2022-08-01T22:16:05.057Z,-139.23
2022-08-01T22:18:36.611Z,-139.23
2022-08-01T22:21:06.115Z,-139.23
2022-08-01T22:23:36.838Z,-139.23
2022-08-01T22:26:07.958Z,-139.23
2022-08-01T22:28:36.644Z,-139.23
2022-08-01T22:31:07.042Z,-139.23
2022-08-01T22:33:35.803Z,-139.23
2022-08-01T22:36:04.487Z,-139.23
2022-08-01T22:38:31.908Z,-139.23
2022-08-01T22:41:04.093Z,-139.23
2022-08-01T22:43:39.660Z,-139.23
2022-08-01T22:46:18.159Z,-139.23
2022-08-01T22:48:50.778Z,-139.23
2022-08-01T22:51:28.542Z,-139.23
2022-08-01T22:54:04.948Z,-139.23
2022-08-01T22:56:38.007Z,-139.23
2022-08-01T22:59:08.905Z,-139.23
2022-08-01T23:01:47.803Z,-139.23
2022-08-01T23:04:33.031Z,-139.23
2022-08-01T23:07:05.487Z,-139.23
2022-08-01T23:09:52.759Z,-139.23
2022-08-01T23:12:23.489Z,-139.23
2022-08-01T23:14:53.427Z,-139.23
2022-08-01T23:17:27.734Z,-139.23
2022-08-01T23:19:58.100Z,-139.23
2022-08-01T23:22:28.885Z,-139.23
2022-08-01T23:25:04.166Z,-139.23
2022-08-01T23:27:55.766Z,-139.23
2022-08-01T23:30:26.910Z,-139.23
2022-08-01T23:32:55.867Z,-139.23
2022-08-01T23:35:24.079Z,-139.23
2022-08-01T23:37:52.125Z,-139.23
2022-08-01T23:40:20.803Z,-139.23
2022-08-01T23:42:53.386Z,-139.23
2022-08-01T23:45:22.016Z,-139.23
2022-08-01T23:47:49.442Z,-139.23
2022-08-01T23:50:18.245Z,-139.23
2022-08-01T23:52:48.447Z,-139.23
2022-08-01T23:55:17.898Z,-139.23
2022-08-01T23:57:45.491Z,-139.23
